Time;durP1;ratioP1;P1;durP2;ratioP2;P2;SDS_P1;SDS_P2;PMS_P1;PMS_P2;Temp;Humidity;BMP_temperature;BMP_pressure;BME280_temperature;BME280_humidity;BME280_pressure;Samples;Min_cycle;Max_cycle;Signal;HPM_P1;HPM_P2
2021/12/23 00:00:04;;;;;;;3.80;3.60;;;-2.00;99.90;;;;;;4994127;28;20210;-62
2021/12/23 00:02:31;;;;;;;3.50;3.30;;;-2.00;99.90;;;;;;4993723;28;20297;-62
2021/12/23 00:04:57;;;;;;;3.77;3.57;;;-1.90;99.90;;;;;;4991880;28;20712;-63
2021/12/23 00:07:24;;;;;;;4.43;4.23;;;-1.90;99.90;;;;;;4994439;28;20571;-62
2021/12/23 00:10:06;;;;;;;3.80;3.60;;;-1.90;99.90;;;;;;4996133;28;20289;-62
2021/12/23 00:12:35;;;;;;;3.40;3.20;;;-2.00;99.90;;;;;;4993660;28;20198;-61
2021/12/23 00:15:04;;;;;;;3.80;3.60;;;-2.00;99.90;;;;;;4992285;28;20224;-62
2021/12/23 00:17:51;;;;;;;3.50;3.30;;;-1.90;99.90;;;;;;4994142;28;20234;-63
2021/12/23 00:23:25;;;;;;;3.30;3.10;;;-1.90;99.90;;;;;;4992011;28;20761;-61
2021/12/23 00:25:56;;;;;;;3.03;2.83;;;-1.90;99.90;;;;;;4993566;28;20581;-62
2021/12/23 00:28:23;;;;;;;2.73;2.53;;;-1.90;99.90;;;;;;4992128;28;20297;-63
2021/12/23 00:30:51;;;;;;;2.87;2.67;;;-1.90;99.90;;;;;;4994037;28;20792;-62
2021/12/23 00:33:17;;;;;;;3.00;2.80;;;-1.80;99.90;;;;;;4993522;28;20261;-61
2021/12/23 00:35:44;;;;;;;3.35;3.15;;;-1.80;99.90;;;;;;4994157;28;20307;-63
2021/12/23 00:38:18;;;;;;;3.67;3.47;;;-1.80;99.90;;;;;;4993735;28;20242;-62
2021/12/23 00:40:45;;;;;;;3.87;3.67;;;-1.80;99.90;;;;;;4996145;28;20289;-62
2021/12/23 00:43:28;;;;;;;3.05;2.88;;;-1.80;99.90;;;;;;4994886;28;20249;-62
2021/12/23 00:46:03;;;;;;;3.60;3.40;;;-1.80;99.90;;;;;;4992276;28;20210;-62
2021/12/23 00:48:39;;;;;;;3.30;3.10;;;-1.80;99.90;;;;;;4991102;28;20210;-62
2021/12/23 00:51:13;;;;;;;3.60;3.40;;;-1.80;99.90;;;;;;4989611;28;20197;-61
2021/12/23 00:56:14;;;;;;;3.47;3.27;;;-1.70;99.90;;;;;;5009376;28;20687;-64
2021/12/23 00:58:43;;;;;;;3.17;2.97;;;-1.70;99.90;;;;;;5018881;28;20208;-64
2021/12/23 01:01:10;;;;;;;3.15;2.95;;;-1.60;99.90;;;;;;5023653;28;20296;-64
2021/12/23 01:03:37;;;;;;;3.10;2.90;;;-1.60;99.90;;;;;;5020582;28;20205;-63
2021/12/23 01:06:04;;;;;;;2.87;2.77;;;-1.60;99.90;;;;;;5012074;28;20624;-65
2021/12/23 01:08:31;;;;;;;2.60;2.50;;;-1.50;99.90;;;;;;5013078;28;20220;-62
2021/12/23 01:11:00;;;;;;;3.00;2.80;;;-1.50;99.90;;;;;;5012996;28;20197;-64
2021/12/23 01:13:28;;;;;;;3.27;3.07;;;-1.50;99.90;;;;;;5013235;28;20205;-64
2021/12/23 01:16:03;;;;;;;3.10;2.90;;;-1.50;99.90;;;;;;5013381;28;20260;-64
2021/12/23 01:18:36;;;;;;;3.70;3.50;;;-1.50;99.90;;;;;;5013979;28;20295;-64
2021/12/23 01:21:14;;;;;;;3.33;3.13;;;-1.50;99.90;;;;;;5013966;28;20201;-63
2021/12/23 01:23:43;;;;;;;3.20;3.00;;;-1.60;99.90;;;;;;5013779;28;20208;-64
2021/12/23 01:26:11;;;;;;;2.50;2.40;;;-1.60;99.90;;;;;;5012503;28;20205;-64
2021/12/23 01:28:38;;;;;;;2.67;2.47;;;-1.50;99.90;;;;;;5013442;28;20221;-64
2021/12/23 01:31:06;;;;;;;2.43;2.33;;;-1.50;99.90;;;;;;5013844;28;20229;-65
2021/12/23 01:33:33;;;;;;;2.77;2.67;;;-1.50;99.90;;;;;;5012798;28;20699;-63
2021/12/23 01:36:01;;;;;;;3.07;2.87;;;-1.50;99.90;;;;;;5010604;28;20308;-65
2021/12/23 01:38:27;;;;;;;2.50;2.40;;;-1.50;99.90;;;;;;5011588;28;20340;-64
2021/12/23 01:40:54;;;;;;;2.57;2.47;;;-1.50;99.90;;;;;;5011521;28;20308;-65
2021/12/23 01:43:21;;;;;;;2.67;2.57;;;-1.50;99.90;;;;;;5011635;28;20284;-64
2021/12/23 01:45:50;;;;;;;2.40;2.30;;;-1.40;99.90;;;;;;5013068;28;20699;-65
2021/12/23 01:48:20;;;;;;;2.40;2.30;;;-1.40;99.90;;;;;;5030718;28;20193;-64
2021/12/23 01:50:47;;;;;;;2.80;2.70;;;-1.30;99.90;;;;;;5030783;28;20225;-65
2021/12/23 01:53:15;;;;;;;2.60;2.50;;;-1.20;99.90;;;;;;5018664;28;20265;-64
2021/12/23 01:55:43;;;;;;;2.25;2.15;;;-1.10;99.90;;;;;;5028902;28;20268;-65
2021/12/23 01:58:12;;;;;;;2.40;2.30;;;-1.00;99.90;;;;;;5013698;28;20582;-64
2021/12/23 02:00:41;;;;;;;2.37;2.27;;;-0.90;99.90;;;;;;5014476;28;20224;-64
2021/12/23 02:03:08;;;;;;;2.63;2.50;;;-0.80;99.90;;;;;;5001986;28;20557;-65
2021/12/23 02:05:37;;;;;;;2.40;2.30;;;-0.80;99.90;;;;;;5011992;28;20333;-63
2021/12/23 02:08:04;;;;;;;2.60;2.50;;;-0.80;99.90;;;;;;5011241;28;20229;-66
2021/12/23 02:10:32;;;;;;;2.53;2.43;;;-0.80;99.90;;;;;;5015021;28;20680;-67
2021/12/23 02:12:59;;;;;;;2.53;2.40;;;-0.80;99.90;;;;;;5030398;28;20201;-63
2021/12/23 02:15:26;;;;;;;2.42;2.30;;;-0.70;99.90;;;;;;5031657;28;20287;-65
2021/12/23 02:17:54;;;;;;;2.53;2.43;;;-0.70;99.90;;;;;;5023341;28;20324;-63
2021/12/23 02:20:25;;;;;;;2.50;2.40;;;-0.70;99.90;;;;;;5013013;28;20236;-64
2021/12/23 02:22:52;;;;;;;2.53;2.43;;;-0.80;99.90;;;;;;5011571;28;20205;-63
2021/12/23 02:25:20;;;;;;;2.50;2.40;;;-0.90;99.90;;;;;;5017090;28;20228;-64
2021/12/23 02:27:48;;;;;;;2.40;2.30;;;-1.00;99.90;;;;;;5010914;28;20663;-62
2021/12/23 02:30:18;;;;;;;2.50;2.40;;;-1.10;99.90;;;;;;5010000;28;20245;-65
2021/12/23 02:32:46;;;;;;;2.72;2.53;;;-1.20;99.90;;;;;;5007547;28;20292;-65
2021/12/23 02:35:15;;;;;;;2.50;2.40;;;-1.20;99.90;;;;;;5009425;28;20271;-64
2021/12/23 02:37:47;;;;;;;2.70;2.60;;;-1.20;99.90;;;;;;5009482;28;20312;-64
2021/12/23 02:40:28;;;;;;;2.50;2.40;;;-1.10;99.90;;;;;;5010243;28;20786;-63
2021/12/23 02:42:56;;;;;;;2.10;2.00;;;-1.10;99.90;;;;;;5009462;28;20691;-64
2021/12/23 02:45:23;;;;;;;2.20;2.10;;;-1.10;99.90;;;;;;5009340;28;20312;-62
2021/12/23 02:47:50;;;;;;;2.20;2.10;;;-1.00;99.90;;;;;;5008029;28;20288;-65
2021/12/23 02:50:17;;;;;;;2.13;2.03;;;-0.90;99.90;;;;;;5009120;28;20301;-65
2021/12/23 02:52:45;;;;;;;2.00;1.90;;;-0.80;99.90;;;;;;5009408;28;20656;-64
2021/12/23 02:55:12;;;;;;;2.07;1.97;;;-0.70;99.90;;;;;;5008820;28;20224;-63
2021/12/23 02:57:39;;;;;;;2.00;1.90;;;-0.70;99.90;;;;;;5008725;28;20316;-64
2021/12/23 03:00:07;;;;;;;1.90;1.80;;;-0.60;99.90;;;;;;5003307;28;20293;-64
2021/12/23 03:02:37;;;;;;;1.80;1.70;;;-0.50;99.90;;;;;;5009433;28;20197;-63
2021/12/23 03:05:04;;;;;;;2.07;1.97;;;-0.50;99.90;;;;;;5008946;28;20225;-64
2021/12/23 03:07:31;;;;;;;2.23;2.13;;;-0.50;99.90;;;;;;5009251;28;20236;-62
2021/12/23 03:10:00;;;;;;;2.37;2.27;;;-0.40;99.90;;;;;;5010399;28;20743;-64
2021/12/23 03:12:26;;;;;;;2.70;2.50;;;-0.40;99.90;;;;;;5010134;28;20632;-63
2021/12/23 03:14:53;;;;;;;2.10;2.00;;;-0.40;99.90;;;;;;5009247;28;20312;-65
2021/12/23 03:17:20;;;;;;;2.20;2.10;;;-0.40;99.90;;;;;;5006185;28;20312;-64
2021/12/23 03:19:47;;;;;;;2.05;1.95;;;-0.40;99.90;;;;;;5009130;28;20201;-64
2021/12/23 03:22:14;;;;;;;2.10;2.00;;;-0.40;99.90;;;;;;5009223;28;20727;-63
2021/12/23 03:24:41;;;;;;;1.93;1.83;;;-0.40;99.90;;;;;;5008097;28;20231;-64
2021/12/23 03:27:09;;;;;;;2.20;2.10;;;-0.40;99.90;;;;;;5009011;28;20205;-64
2021/12/23 03:29:36;;;;;;;2.37;2.27;;;-0.50;99.90;;;;;;5011942;28;20213;-63
2021/12/23 03:32:04;;;;;;;3.00;2.90;;;-0.60;99.90;;;;;;5011290;28;20279;-63
2021/12/23 03:34:31;;;;;;;3.40;3.20;;;-0.70;99.90;;;;;;5012727;28;20328;-64
2021/12/23 03:36:58;;;;;;;2.70;2.60;;;-0.80;99.90;;;;;;5012271;28;20316;-64
2021/12/23 03:39:26;;;;;;;2.47;2.37;;;-0.90;99.90;;;;;;5013324;28;20210;-65
2021/12/23 03:41:53;;;;;;;2.93;2.73;;;-1.00;99.90;;;;;;5013196;28;20209;-68
2021/12/23 03:44:21;;;;;;;2.93;2.80;;;-1.00;99.90;;;;;;5012625;28;20233;-63
2021/12/23 03:46:48;;;;;;;2.63;2.53;;;-1.00;99.90;;;;;;5011991;28;20198;-64
2021/12/23 03:49:15;;;;;;;3.10;2.90;;;-1.10;99.90;;;;;;5012930;28;20220;-68
2021/12/23 03:51:42;;;;;;;3.07;2.87;;;-1.00;99.90;;;;;;5013944;28;20296;-65
2021/12/23 03:54:09;;;;;;;2.70;2.60;;;-1.00;99.90;;;;;;5013791;28;20261;-63
2021/12/23 03:56:36;;;;;;;2.63;2.43;;;-1.00;99.90;;;;;;5012988;28;20226;-65
2021/12/23 03:59:03;;;;;;;2.60;2.50;;;-0.90;99.90;;;;;;5013685;28;20634;-63
2021/12/23 04:01:32;;;;;;;3.10;2.90;;;-0.90;99.90;;;;;;5013115;28;20296;-63
2021/12/23 04:03:59;;;;;;;3.30;3.10;;;-1.00;99.90;;;;;;5021253;28;20236;-65
2021/12/23 04:06:27;;;;;;;3.07;2.87;;;-1.10;99.90;;;;;;5015274;28;20569;-65
2021/12/23 04:08:54;;;;;;;2.60;2.50;;;-1.10;99.90;;;;;;5013406;28;20201;-63
2021/12/23 04:11:22;;;;;;;2.63;2.53;;;-1.10;99.90;;;;;;5015396;28;20206;-65
2021/12/23 04:13:49;;;;;;;2.88;2.70;;;-1.00;99.90;;;;;;5014578;28;20206;-65
2021/12/23 04:16:16;;;;;;;2.70;2.60;;;-0.90;99.90;;;;;;5014747;28;20265;-64
2021/12/23 04:18:46;;;;;;;2.80;2.60;;;-0.90;99.90;;;;;;5015916;28;20229;-65
2021/12/23 04:21:14;;;;;;;2.70;2.50;;;-0.80;99.90;;;;;;5029735;28;20225;-65
2021/12/23 04:23:41;;;;;;;2.47;2.37;;;-0.80;99.90;;;;;;5023427;28;20316;-65
2021/12/23 04:26:09;;;;;;;2.80;2.70;;;-0.90;99.90;;;;;;5015629;28;20240;-64
2021/12/23 04:28:45;;;;;;;2.70;2.60;;;-0.80;99.90;;;;;;5015350;28;20232;-63
2021/12/23 04:31:12;;;;;;;2.70;2.60;;;-0.90;99.90;;;;;;5018148;28;20204;-63
2021/12/23 04:33:39;;;;;;;2.60;2.50;;;-0.90;99.90;;;;;;5013570;28;20257;-64
2021/12/23 04:36:09;;;;;;;2.63;2.53;;;-1.00;99.90;;;;;;5011985;28;20578;-64
2021/12/23 04:38:38;;;;;;;2.80;2.60;;;-1.10;99.90;;;;;;5012609;28;20225;-65
2021/12/23 04:41:05;;;;;;;2.67;2.58;;;-1.10;99.90;;;;;;5012288;28;20208;-64
2021/12/23 04:43:32;;;;;;;2.43;2.33;;;-1.10;99.90;;;;;;5012963;28;20220;-63
2021/12/23 04:45:59;;;;;;;2.60;2.50;;;-1.20;99.90;;;;;;5010886;28;20726;-63
2021/12/23 04:48:26;;;;;;;2.10;2.00;;;-1.20;99.90;;;;;;5012907;28;20223;-65
2021/12/23 04:50:53;;;;;;;2.57;2.40;;;-1.20;99.90;;;;;;5012870;28;20201;-63
2021/12/23 04:53:21;;;;;;;2.43;2.33;;;-1.20;99.90;;;;;;5009492;28;20624;-64
2021/12/23 04:55:48;;;;;;;2.37;2.27;;;-1.10;99.90;;;;;;5011573;28;20233;-64
2021/12/23 04:58:15;;;;;;;2.53;2.43;;;-1.10;99.90;;;;;;5011031;28;20316;-65
2021/12/23 05:00:47;;;;;;;2.40;2.30;;;-1.20;99.90;;;;;;5011676;28;20295;-64
2021/12/23 05:03:14;;;;;;;2.20;2.10;;;-1.20;99.90;;;;;;5011704;28;20193;-62
2021/12/23 05:05:41;;;;;;;2.87;2.67;;;-1.20;99.90;;;;;;5011378;28;20312;-63
2021/12/23 05:08:07;;;;;;;1.90;1.80;;;-1.20;99.90;;;;;;5010620;28;20229;-63
2021/12/23 05:10:36;;;;;;;2.10;2.00;;;-1.20;99.90;;;;;;5011627;28;20213;-63
2021/12/23 05:13:03;;;;;;;1.80;1.70;;;-1.20;99.90;;;;;;5008500;28;20743;-64
2021/12/23 05:15:30;;;;;;;1.70;1.60;;;-1.20;99.90;;;;;;5011673;28;20233;-64
2021/12/23 05:17:58;;;;;;;1.83;1.73;;;-1.10;99.90;;;;;;5011309;28;20242;-64
2021/12/23 05:20:25;;;;;;;1.80;1.70;;;-1.00;99.90;;;;;;5011578;28;20244;-65
2021/12/23 05:22:52;;;;;;;2.23;2.13;;;-1.00;99.90;;;;;;5011349;28;20277;-64
2021/12/23 05:25:19;;;;;;;2.00;1.90;;;-1.00;99.90;;;;;;5010881;28;20240;-65
2021/12/23 05:27:52;;;;;;;1.90;1.80;;;-0.90;99.90;;;;;;5010586;28;20205;-63
2021/12/23 05:30:19;;;;;;;2.13;2.03;;;-0.90;99.90;;;;;;5011588;28;20297;-65
2021/12/23 05:32:46;;;;;;;2.10;2.00;;;-0.90;99.90;;;;;;5010710;28;20255;-63
2021/12/23 05:35:16;;;;;;;2.00;1.90;;;-0.90;99.90;;;;;;5010977;28;20227;-64
2021/12/23 05:37:44;;;;;;;2.10;2.00;;;-0.90;99.90;;;;;;5010191;28;20641;-63
2021/12/23 05:40:13;;;;;;;2.20;2.10;;;-0.90;99.90;;;;;;5010629;28;20202;-65
2021/12/23 05:42:39;;;;;;;1.90;1.80;;;-0.90;99.90;;;;;;5010979;28;20296;-65
2021/12/23 05:45:09;;;;;;;2.27;2.17;;;-0.90;99.90;;;;;;5008032;28;20660;-64
2021/12/23 05:47:36;;;;;;;2.60;2.50;;;-0.80;99.90;;;;;;5010913;28;20201;-65
2021/12/23 05:50:03;;;;;;;2.83;2.73;;;-0.70;99.90;;;;;;5010921;28;20229;-62
2021/12/23 05:52:30;;;;;;;3.00;2.90;;;-0.70;99.90;;;;;;5009865;28;20292;-65
2021/12/23 05:54:57;;;;;;;2.80;2.70;;;-0.70;99.90;;;;;;5010613;28;20241;-64
2021/12/23 05:57:24;;;;;;;2.93;2.83;;;-0.70;99.90;;;;;;5010207;28;20316;-63
2021/12/23 05:59:51;;;;;;;2.60;2.50;;;-0.70;99.90;;;;;;5010869;28;20239;-64
2021/12/23 06:02:19;;;;;;;2.70;2.50;;;-0.60;99.90;;;;;;5010993;28;20624;-64
2021/12/23 06:04:46;;;;;;;3.00;2.90;;;-0.60;99.90;;;;;;5010217;28;20352;-64
2021/12/23 06:07:13;;;;;;;2.00;1.90;;;-0.60;99.90;;;;;;5011364;28;20201;-63
2021/12/23 06:09:40;;;;;;;2.30;2.20;;;-0.50;99.90;;;;;;5011855;28;20603;-63
2021/12/23 06:12:08;;;;;;;2.30;2.20;;;-0.50;99.90;;;;;;5011136;28;20197;-64
2021/12/23 06:14:35;;;;;;;2.60;2.50;;;-0.40;99.90;;;;;;5011179;28;20225;-64
2021/12/23 06:17:02;;;;;;;3.30;3.10;;;-0.50;99.90;;;;;;5010495;28;20236;-63
2021/12/23 06:19:31;;;;;;;3.10;2.90;;;-0.50;99.90;;;;;;5012077;28;20247;-65
2021/12/23 06:21:57;;;;;;;3.23;2.63;;;-0.60;99.90;;;;;;5025198;28;20244;-63
2021/12/23 06:24:24;;;;;;;2.40;2.30;;;-0.60;99.90;;;;;;5014026;28;20275;-65
2021/12/23 06:26:51;;;;;;;1.60;1.60;;;-0.80;99.90;;;;;;5018301;28;20296;-64
2021/12/23 06:29:18;;;;;;;1.60;1.50;;;-0.80;99.90;;;;;;5019157;28;20201;-64
2021/12/23 06:31:45;;;;;;;1.70;1.60;;;-0.80;99.90;;;;;;5014929;28;20714;-63
2021/12/23 06:34:12;;;;;;;1.60;1.50;;;-0.80;99.90;;;;;;5015508;28;20707;-64
2021/12/23 06:36:42;;;;;;;1.30;1.30;;;-0.80;99.90;;;;;;5017394;28;20731;-63
2021/12/23 06:39:09;;;;;;;1.90;1.80;;;-0.80;99.90;;;;;;5014269;28;20210;-64
2021/12/23 06:41:36;;;;;;;1.20;1.20;;;-0.80;99.90;;;;;;5013976;28;20279;-65
2021/12/23 06:44:03;;;;;;;1.20;1.20;;;-0.80;99.90;;;;;;5012964;28;20304;-64
2021/12/23 06:46:30;;;;;;;1.30;1.30;;;-0.80;99.90;;;;;;5011237;28;20293;-64
2021/12/23 06:48:57;;;;;;;1.38;1.38;;;-0.90;99.90;;;;;;5013013;28;20316;-65
2021/12/23 06:51:27;;;;;;;1.40;1.40;;;-0.80;99.90;;;;;;5026325;28;20220;-65
2021/12/23 06:53:57;;;;;;;1.47;1.40;;;-0.80;99.90;;;;;;5023345;28;20288;-63
2021/12/23 06:56:24;;;;;;;1.17;1.17;;;-0.70;99.90;;;;;;5024268;28;20279;-65
2021/12/23 06:58:51;;;;;;;1.43;1.33;;;-0.70;99.90;;;;;;5025790;28;20285;-64
2021/12/23 07:01:20;;;;;;;1.10;1.10;;;-0.70;99.90;;;;;;5030339;28;20217;-65
2021/12/23 07:04:04;;;;;;;1.30;1.30;;;-0.60;99.90;;;;;;5011424;28;20241;-64
2021/12/23 07:06:32;;;;;;;1.37;1.37;;;-0.50;99.90;;;;;;5010073;28;20197;-65
2021/12/23 07:09:02;;;;;;;1.40;1.40;;;-0.50;99.90;;;;;;5014863;28;20200;-64
2021/12/23 07:11:29;;;;;;;1.40;1.40;;;-0.40;99.90;;;;;;5010474;28;20251;-64
2021/12/23 07:13:56;;;;;;;1.63;1.53;;;-0.30;99.90;;;;;;5010095;28;20582;-64
2021/12/23 07:16:23;;;;;;;1.70;1.60;;;-0.30;99.90;;;;;;5009350;28;20201;-63
2021/12/23 07:18:50;;;;;;;1.90;1.80;;;-0.20;99.90;;;;;;5009650;28;22076;-64
2021/12/23 07:21:17;;;;;;;1.67;1.57;;;-0.30;99.90;;;;;;5010586;28;20296;-65
2021/12/23 07:23:43;;;;;;;1.37;1.30;;;-0.20;99.90;;;;;;5010054;28;20292;-64
2021/12/23 07:26:12;;;;;;;1.70;1.60;;;-0.20;99.90;;;;;;5009572;28;20219;-65
2021/12/23 07:28:39;;;;;;;1.67;1.57;;;-0.20;99.90;;;;;;5008888;28;20284;-65
2021/12/23 07:31:06;;;;;;;1.80;1.70;;;-0.10;99.90;;;;;;5009283;28;20232;-65
2021/12/23 07:33:34;;;;;;;2.13;2.03;;;-0.10;99.90;;;;;;5009244;28;20210;-63
2021/12/23 07:36:01;;;;;;;2.00;1.90;;;-0.10;99.90;;;;;;5009679;28;20316;-65
2021/12/23 07:38:28;;;;;;;1.83;1.73;;;0.00;99.90;;;;;;5012233;28;20249;-64
2021/12/23 07:40:55;;;;;;;2.10;2.00;;;0.00;99.90;;;;;;5010593;28;20288;-64
2021/12/23 07:43:44;;;;;;;1.80;1.70;;;0.00;99.90;;;;;;5005866;28;20208;-64
2021/12/23 07:46:11;;;;;;;1.80;1.70;;;0.10;99.90;;;;;;5009473;28;20612;-63
2021/12/23 07:48:38;;;;;;;2.37;2.27;;;0.20;99.90;;;;;;5008990;28;20201;-65
2021/12/23 07:51:05;;;;;;;1.90;1.80;;;0.30;99.90;;;;;;5008742;28;20324;-65
2021/12/23 07:53:32;;;;;;;2.10;2.00;;;0.40;99.90;;;;;;5006111;28;20215;-64
2021/12/23 07:55:59;;;;;;;1.63;1.57;;;0.50;99.90;;;;;;5008296;28;20323;-65
2021/12/23 07:58:27;;;;;;;1.50;1.50;;;0.60;99.90;;;;;;5006465;28;20239;-63
2021/12/23 08:00:54;;;;;;;2.10;2.00;;;0.60;99.90;;;;;;5009732;28;20948;-62
2021/12/23 08:03:21;;;;;;;1.70;1.60;;;0.70;99.90;;;;;;5024510;28;20216;-66
2021/12/23 08:05:48;;;;;;;1.43;1.43;;;0.70;99.90;;;;;;5027684;28;20232;-65
2021/12/23 08:08:16;;;;;;;1.90;1.80;;;0.80;99.90;;;;;;5010220;28;20216;-63
2021/12/23 08:10:42;;;;;;;1.83;1.73;;;0.80;99.90;;;;;;5019428;28;20276;-65
2021/12/23 08:13:09;;;;;;;1.80;1.70;;;0.80;99.90;;;;;;5009429;28;20555;-64
2021/12/23 08:15:38;;;;;;;1.43;1.37;;;0.80;99.90;;;;;;5008200;28;20279;-64
2021/12/23 08:18:05;;;;;;;1.93;1.83;;;0.90;99.90;;;;;;5010273;28;20245;-64
2021/12/23 08:20:31;;;;;;;1.90;1.80;;;1.10;99.90;;;;;;5011070;28;20605;-64
2021/12/23 08:22:58;;;;;;;1.70;1.60;;;1.00;99.90;;;;;;5010194;28;20201;-65
2021/12/23 08:25:26;;;;;;;1.87;1.77;;;1.00;99.90;;;;;;5010544;28;20369;-65
2021/12/23 08:27:52;;;;;;;1.70;1.60;;;1.00;99.90;;;;;;5011521;28;20237;-64
2021/12/23 08:30:21;;;;;;;1.93;1.70;;;1.10;99.90;;;;;;5041793;23;20322;-61
2021/12/23 08:32:50;;;;;;;1.70;1.60;;;1.20;99.90;;;;;;5030760;28;20291;-61
2021/12/23 08:35:19;;;;;;;2.00;1.90;;;1.20;99.90;;;;;;5032958;28;20232;-62
2021/12/23 08:37:48;;;;;;;1.60;1.57;;;1.20;99.90;;;;;;5032977;28;20296;-61
2021/12/23 08:40:17;;;;;;;1.60;1.60;;;1.20;99.90;;;;;;5025797;28;20312;-59
2021/12/23 08:42:44;;;;;;;2.20;2.00;;;1.20;99.90;;;;;;5013246;28;20216;-62
2021/12/23 08:45:11;;;;;;;1.40;1.40;;;1.20;99.90;;;;;;5013561;28;20887;-62
2021/12/23 08:47:38;;;;;;;2.23;1.67;;;1.30;99.90;;;;;;5014595;28;20292;-62
2021/12/23 08:50:10;;;;;;;1.83;1.73;;;1.40;99.90;;;;;;5015491;28;20221;-62
2021/12/23 08:52:37;;;;;;;1.60;1.50;;;1.40;99.90;;;;;;5014748;28;20201;-61
2021/12/23 08:55:07;;;;;;;1.70;1.60;;;1.50;99.90;;;;;;5014802;28;20206;-63
2021/12/23 08:57:35;;;;;;;1.77;1.67;;;1.60;99.90;;;;;;5014416;28;20201;-62
2021/12/23 09:00:02;;;;;;;1.70;1.60;;;1.60;99.90;;;;;;5014623;28;20267;-63
2021/12/23 09:02:29;;;;;;;1.80;1.70;;;1.60;99.90;;;;;;5014584;28;20292;-58
2021/12/23 09:04:56;;;;;;;1.30;1.30;;;3.40;99.90;;;;;;5015246;28;20293;-64
2021/12/23 09:07:24;;;;;;;1.40;1.30;;;5.20;99.90;;;;;;5022026;28;20201;-64
2021/12/23 09:09:51;;;;;;;1.37;1.37;;;5.00;99.90;;;;;;5020913;28;20264;-63
2021/12/23 09:12:19;;;;;;;1.50;1.40;;;4.20;99.90;;;;;;5019942;28;20215;-63
2021/12/23 09:14:45;;;;;;;1.70;1.60;;;3.60;99.90;;;;;;5012604;28;20233;-63
2021/12/23 09:17:13;;;;;;;2.10;2.00;;;3.30;99.90;;;;;;5016583;28;20244;-62
2021/12/23 09:19:40;;;;;;;1.80;1.70;;;3.00;99.90;;;;;;5016640;28;20311;-63
2021/12/23 09:22:08;;;;;;;1.73;1.40;;;2.90;99.90;;;;;;5016394;28;20296;-63
2021/12/23 09:24:41;;;;;;;1.60;1.50;;;2.90;99.90;;;;;;5014882;28;20209;-63
2021/12/23 09:27:20;;;;;;;1.30;1.30;;;2.80;99.90;;;;;;5013729;28;20205;-62
2021/12/23 09:32:52;;;;;;;1.47;1.47;;;2.80;99.90;;;;;;5013588;28;20208;-63
2021/12/23 09:35:20;;;;;;;1.37;1.33;;;2.80;99.90;;;;;;5014225;28;20225;-62
2021/12/23 09:37:47;;;;;;;1.77;1.67;;;2.90;99.90;;;;;;5013553;28;20248;-63
2021/12/23 09:40:16;;;;;;;1.40;1.40;;;2.90;99.90;;;;;;5013877;28;20313;-62
2021/12/23 09:42:45;;;;;;;1.33;1.33;;;2.90;99.90;;;;;;5010394;28;20308;-63
2021/12/23 09:45:14;;;;;;;1.60;1.50;;;3.00;99.90;;;;;;5014459;28;20269;-62
2021/12/23 09:47:42;;;;;;;1.80;1.70;;;3.10;99.90;;;;;;5013965;28;20635;-63
2021/12/23 09:50:12;;;;;;;1.57;1.47;;;3.10;99.90;;;;;;5015785;28;20217;-62
2021/12/23 09:52:43;;;;;;;1.53;1.53;;;3.20;99.90;;;;;;5007769;28;20229;-63
2021/12/23 09:55:12;;;;;;;1.60;1.50;;;3.20;99.90;;;;;;5022370;28;20229;-61
2021/12/23 09:57:41;;;;;;;2.23;2.13;;;3.30;99.90;;;;;;5021820;28;20206;-64
2021/12/23 10:00:11;;;;;;;2.00;1.90;;;3.40;99.90;;;;;;5020502;28;20315;-63
2021/12/23 10:02:40;;;;;;;1.80;1.70;;;3.50;99.90;;;;;;5019216;28;20244;-62
2021/12/23 10:05:10;;;;;;;1.70;1.60;;;3.60;99.90;;;;;;5015925;28;20308;-62
2021/12/23 10:07:37;;;;;;;1.70;1.60;;;3.60;99.90;;;;;;5018317;28;20252;-61
2021/12/23 10:10:10;;;;;;;1.50;1.50;;;3.60;99.90;;;;;;5019201;28;20229;-63
2021/12/23 10:33:17;;;;;;;1.70;1.60;;;4.40;99.90;;;;;;5014134;28;20240;-62
2021/12/23 10:38:37;;;;;;;1.80;1.70;;;4.40;99.90;;;;;;5027398;28;20598;-62
2021/12/23 10:41:07;;;;;;;1.35;1.35;;;4.50;99.90;;;;;;5019626;28;20915;-63
2021/12/23 10:43:37;;;;;;;2.00;1.90;;;4.50;99.90;;;;;;5018703;28;20197;-63
2021/12/23 10:46:13;;;;;;;1.40;1.40;;;4.60;99.90;;;;;;5007022;28;20296;-62
2021/12/23 10:48:51;;;;;;;1.43;1.43;;;4.70;99.90;;;;;;5013273;28;20236;-62
2021/12/23 10:51:20;;;;;;;1.60;1.50;;;4.80;99.90;;;;;;5015231;28;20221;-62
2021/12/23 10:53:57;;;;;;;1.70;1.60;;;4.90;99.90;;;;;;5015747;28;20296;-63
2021/12/23 10:59:15;;;;;;;1.87;1.77;;;5.10;99.90;;;;;;5015998;28;20227;-63
2021/12/23 11:02:05;;;;;;;1.43;1.43;;;5.10;99.90;;;;;;5016328;28;20221;-62
2021/12/23 11:04:38;;;;;;;1.40;1.40;;;5.20;99.90;;;;;;5016462;28;20727;-61
2021/12/23 11:07:13;;;;;;;1.37;1.37;;;5.30;99.90;;;;;;5015790;28;20205;-62
2021/12/23 11:09:59;;;;;;;1.70;1.60;;;5.50;99.90;;;;;;5014479;28;20243;-63
2021/12/23 11:35:44;;;;;;;1.43;1.40;;;6.20;99.90;;;;;;5011026;28;20201;-63
2021/12/23 11:35:50;;;;;;;1.30;1.30;;;6.30;99.90;;;;;;5011890;28;20212;-63
2021/12/23 11:38:27;;;;;;;1.53;1.43;;;6.40;99.90;;;;;;5012127;28;20201;-62
2021/12/23 11:40:58;;;;;;;1.40;1.40;;;6.60;99.90;;;;;;5013074;28;20223;-62
2021/12/23 11:43:47;;;;;;;1.40;1.40;;;6.60;99.90;;;;;;5014313;28;20209;-61
2021/12/23 11:46:16;;;;;;;1.43;1.33;;;6.80;99.90;;;;;;5014310;28;20672;-62
2021/12/23 11:48:46;;;;;;;1.50;1.40;;;6.90;99.90;;;;;;5012854;28;20679;-63
2021/12/23 11:51:20;;;;;;;1.50;1.40;;;7.10;99.90;;;;;;5015614;28;20271;-62
2021/12/23 11:53:49;;;;;;;1.30;1.30;;;7.20;99.90;;;;;;5020099;28;20215;-63
2021/12/23 11:56:18;;;;;;;1.40;1.40;;;7.30;99.90;;;;;;5020165;28;20276;-61
2021/12/23 11:58:47;;;;;;;1.40;1.40;;;7.40;99.90;;;;;;5028463;28;20557;-61
2021/12/23 12:01:24;;;;;;;1.30;1.30;;;7.50;99.90;;;;;;5019655;28;20221;-62
2021/12/23 12:04:02;;;;;;;1.60;1.50;;;7.60;99.90;;;;;;5017615;28;20196;-62
2021/12/23 12:06:38;;;;;;;1.63;1.53;;;7.70;99.90;;;;;;5017829;28;20295;-62
2021/12/23 12:09:16;;;;;;;1.53;1.43;;;7.80;99.90;;;;;;5017376;28;20197;-63
2021/12/23 12:11:49;;;;;;;1.40;1.40;;;8.00;99.90;;;;;;5016220;28;20324;-63
2021/12/23 12:14:44;;;;;;;1.60;1.50;;;8.10;99.90;;;;;;5017074;28;20319;-62
2021/12/23 12:17:40;;;;;;;1.50;1.40;;;8.20;99.90;;;;;;5002565;28;20240;-63
2021/12/23 12:20:34;;;;;;;1.20;1.20;;;8.30;99.90;;;;;;5015651;28;20229;-63
2021/12/23 12:23:06;;;;;;;1.37;1.37;;;8.30;99.90;;;;;;4998443;28;20582;-62
2021/12/23 12:25:56;;;;;;;1.43;1.20;;;8.20;99.90;;;;;;5007940;28;20210;-62
2021/12/23 12:28:39;;;;;;;1.30;1.30;;;8.20;99.90;;;;;;4999672;28;20256;-63
2021/12/23 12:31:09;;;;;;;1.35;1.27;;;8.10;99.90;;;;;;4997467;28;20232;-63
2021/12/23 12:34:05;;;;;;;1.27;1.27;;;8.10;99.90;;;;;;5004556;28;20206;-62
2021/12/23 12:36:40;;;;;;;1.00;1.00;;;8.00;99.90;;;;;;4996727;28;20214;-62
2021/12/23 12:39:19;;;;;;;1.10;1.10;;;8.00;99.90;;;;;;5000504;28;20267;-64
2021/12/23 12:41:47;;;;;;;1.10;1.10;;;8.00;99.90;;;;;;5009493;28;20264;-62
2021/12/23 12:44:22;;;;;;;1.20;1.20;;;8.10;99.90;;;;;;5013381;28;20328;-62
2021/12/23 12:47:03;;;;;;;1.43;1.10;;;8.10;99.90;;;;;;5012926;28;20207;-63
2021/12/23 12:49:36;;;;;;;1.00;1.00;;;8.10;99.90;;;;;;5017582;28;20197;-62
2021/12/23 12:52:20;;;;;;;1.17;1.10;;;8.20;99.90;;;;;;5018283;28;20231;-64
2021/12/23 12:54:55;;;;;;;1.20;1.20;;;8.20;99.90;;;;;;5023905;28;20198;-62
2021/12/23 12:57:24;;;;;;;1.00;1.00;;;8.30;99.90;;;;;;5022139;28;20207;-63
2021/12/23 12:59:51;;;;;;;1.00;1.00;;;8.30;99.90;;;;;;5022806;28;20237;-63
2021/12/23 13:02:21;;;;;;;0.93;0.93;;;8.30;99.90;;;;;;5020040;28;20201;-63
2021/12/23 13:04:53;;;;;;;1.10;1.10;;;8.20;99.90;;;;;;5005459;28;20217;-63
2021/12/23 13:07:27;;;;;;;1.17;1.17;;;8.20;99.90;;;;;;5016990;28;20209;-63
2021/12/23 13:10:01;;;;;;;1.40;1.30;;;8.20;99.90;;;;;;5016593;28;20221;-62
2021/12/23 13:12:34;;;;;;;1.40;1.40;;;8.10;99.90;;;;;;5015416;28;20663;-65
2021/12/23 13:15:17;;;;;;;1.40;1.40;;;8.10;99.90;;;;;;5014816;28;20232;-61
2021/12/23 13:17:47;;;;;;;1.70;1.60;;;8.10;99.90;;;;;;5015208;28;20292;-61
2021/12/23 13:20:15;;;;;;;1.20;1.20;;;8.10;99.90;;;;;;5015707;28;20221;-62
2021/12/23 13:22:44;;;;;;;1.10;1.10;;;8.10;99.90;;;;;;5014485;28;21160;-62
2021/12/23 13:25:12;;;;;;;1.10;1.10;;;8.10;99.90;;;;;;5014227;28;20205;-64
2021/12/23 13:27:40;;;;;;;1.40;1.30;;;8.10;99.90;;;;;;5014213;28;20206;-63
2021/12/23 13:30:11;;;;;;;1.20;1.20;;;8.10;99.90;;;;;;5016458;28;20341;-63
2021/12/23 13:32:39;;;;;;;2.10;1.63;;;8.10;99.90;;;;;;5020339;28;20861;-63
2021/12/23 13:35:10;;;;;;;1.37;1.37;;;8.00;99.90;;;;;;5014030;28;20212;-63
2021/12/23 13:37:42;;;;;;;1.30;1.30;;;8.00;99.90;;;;;;5014997;28;20209;-62
2021/12/23 13:40:12;;;;;;;1.40;1.30;;;8.00;99.90;;;;;;5016462;28;20240;-62
2021/12/23 13:42:40;;;;;;;1.10;1.10;;;7.90;99.90;;;;;;5016568;28;20216;-62
2021/12/23 13:45:10;;;;;;;1.30;1.20;;;7.80;99.90;;;;;;5018762;28;20209;-62
2021/12/23 13:47:37;;;;;;;1.50;1.40;;;7.80;99.90;;;;;;5015500;28;20224;-62
2021/12/23 13:50:06;;;;;;;1.00;1.00;;;7.80;99.90;;;;;;5016514;28;20229;-63
2021/12/23 13:52:38;;;;;;;1.43;1.33;;;7.70;99.90;;;;;;5016342;28;20238;-63
2021/12/23 13:55:08;;;;;;;1.17;1.17;;;7.70;99.90;;;;;;5019666;28;20208;-64
2021/12/23 13:57:41;;;;;;;1.60;1.50;;;7.70;99.90;;;;;;5015651;28;20200;-62